Weather History for Dublin, GA

Change the Weather History Date:

Saturday, April 7, 2012

  Actual Average Record
Temperature  
Mean Temperature 55 °F -  
Max Temperature 71 °F 74 °F 89 °F (1954)
Min Temperature 39 °F 45 °F 30 °F (1982)
Degree Days  
Heating Degree Days 10    
Growing Degree Days 5 (Base 50)    
Moisture  
Dew Point 43 °F    
Average Humidity 69    
Maximum Humidity 100    
Minimum Humidity 29    
Precipitation  
Precipitation 0.00 in - - ()
Sea Level Pressure  
Sea Level Pressure 30.21 in    
Wind  
Wind Speed 1 mph (ENE)    
Max Wind Speed 8 mph    
Max Gust Speed -    
Visibility 9 miles    
Events      
Averages and records for this station are not official NWS values.
T = Trace of Precipitation, MM = Missing Value Source: NWS Daily Summary

Daily Weather History Graph

Daily Weather History Graph

Search for Another Location

Airport:

Trip Planner

Search our weather history database for the weather conditions in past years. The results will help you decide how hot, cold, wet, or windy it might be!

Date:

Astronomy

Apr. 07, 2012 Rise Set
Actual Time 7:11 AM EDT 7:56 PM EDT
Civil Twilight 6:46 AM EDT 8:21 PM EDT
Nautical Twilight 6:17 AM EDT 8:50 PM EDT
Astronomical Twilight 5:47 AM EDT 9:21 PM EDT
Moon 9:21 PM EDT (4/7) 7:28 AM EDT (4/7)
Length of Visible Light 13h 34m
Length of Day
12h 44m
Full, 99% of the Moon is Illuminated
Apr 7
Full
Apr 13
Last Quarter
Apr 21
New
Apr 29
First Quarter
May 5
Full

Hourly Weather History & Observations

Time (EDT) Temp. Windchill Dew Point Humidity Pressure Visibility Wind Dir Wind Speed Gust Speed Precip Events Conditions
12:15 AM 44.6 °F - 44.6 °F 100% 30.12 in 5.0 mi Calm Calm - N/A   Clear
12:35 AM 46.4 °F - 46.4 °F 100% 30.13 in 5.0 mi Calm Calm - N/A   Clear
12:55 AM 44.6 °F - 44.6 °F 100% 30.14 in 10.0 mi Calm Calm - N/A   Clear
1:15 AM 44.6 °F - 44.6 °F 100% 30.14 in 10.0 mi Calm Calm - N/A   Clear
1:35 AM 44.6 °F - 44.6 °F 100% 30.14 in 7.0 mi Calm Calm - N/A   Clear
1:55 AM 44.6 °F - 44.6 °F 100% 30.14 in 10.0 mi Calm Calm - N/A   Clear
2:15 AM 44.6 °F - 44.6 °F 100% 30.14 in 10.0 mi Calm Calm - N/A   Clear
2:35 AM 44.6 °F - 44.6 °F 100% 30.14 in 7.0 mi Calm Calm - N/A   Clear
3:15 AM 42.8 °F - 42.8 °F 100% 30.14 in 7.0 mi Calm Calm - N/A   Clear
3:35 AM 42.8 °F - 42.8 °F 100% 30.14 in 4.0 mi Calm Calm - N/A   Clear
3:55 AM 41.0 °F - 41.0 °F 100% 30.14 in 0.8 mi Calm Calm - N/A   Mist
4:15 AM 42.8 °F - 42.8 °F 100% 30.14 in 10.0 mi Calm Calm - N/A   Clear
4:35 AM 41.0 °F - 41.0 °F 100% 30.15 in 7.0 mi Calm Calm - N/A   Clear
4:55 AM 41.0 °F - 41.0 °F 100% 30.15 in 7.0 mi Calm Calm - N/A   Clear
5:15 AM 42.8 °F - 42.8 °F 100% 30.15 in 10.0 mi Calm Calm - N/A   Clear
5:35 AM 41.0 °F - 41.0 °F 100% 30.16 in 7.0 mi Calm Calm - N/A   Clear
5:55 AM 41.0 °F - 41.0 °F 100% 30.16 in 4.0 mi Calm Calm - N/A   Clear
6:15 AM 41.0 °F - 41.0 °F 100% 30.17 in 7.0 mi Calm Calm - N/A   Clear
6:35 AM 41.0 °F - 41.0 °F 100% 30.18 in 7.0 mi Calm Calm - N/A   Clear
6:55 AM 39.2 °F - 39.2 °F 100% 30.19 in 7.0 mi Calm Calm - N/A   Clear
7:15 AM 39.2 °F - 39.2 °F 100% 30.20 in 7.0 mi Calm Calm - N/A   Clear
7:35 AM 41.0 °F - 41.0 °F 100% 30.21 in 10.0 mi Calm Calm - N/A   Clear
7:55 AM 42.8 °F - 42.8 °F 100% 30.23 in 10.0 mi Calm Calm - N/A   Clear
8:15 AM 44.6 °F - 44.6 °F 100% 30.24 in 10.0 mi Calm Calm - N/A   Clear
8:35 AM 46.4 °F 45.2 °F 46.4 °F 100% 30.25 in 10.0 mi NNW 3.5 mph - N/A   Clear
8:55 AM 50.0 °F - 48.2 °F 94% 30.26 in 10.0 mi North 3.5 mph - N/A   Clear
9:15 AM 51.8 °F - 50.0 °F 94% 30.27 in 10.0 mi Calm Calm - N/A   Clear
9:35 AM 53.6 °F - 50.0 °F 88% 30.27 in 10.0 mi Calm Calm - N/A   Clear
9:55 AM 55.4 °F - 50.0 °F 82% 30.28 in 10.0 mi Calm Calm - N/A   Clear
10:15 AM 59.0 °F - 50.0 °F 72% 30.29 in 10.0 mi Calm Calm - N/A   Clear
10:35 AM 59.0 °F - 46.4 °F 63% 30.30 in 10.0 mi North 3.5 mph - N/A   Clear
10:55 AM 62.6 °F - 46.4 °F 55% 30.30 in 10.0 mi East 4.6 mph - N/A   Clear
11:15 AM 64.4 °F - 42.8 °F 45% 30.31 in 10.0 mi East 5.8 mph - N/A   Clear
11:35 AM 64.4 °F - 42.8 °F 45% 30.31 in 10.0 mi ESE 4.6 mph - N/A   Clear
11:55 AM 64.4 °F - 44.6 °F 49% 30.30 in 10.0 mi ESE 5.8 mph - N/A   Clear
12:15 PM 66.2 °F - 44.6 °F 46% 30.28 in 10.0 mi ENE 6.9 mph - N/A   Clear
12:35 PM 66.2 °F - 41.0 °F 40% 30.28 in 10.0 mi NNE 4.6 mph - N/A   Clear
12:55 PM 68.0 °F - 41.0 °F 37% 30.27 in 10.0 mi East 8.1 mph - N/A   Clear
1:15 PM 69.8 °F - 41.0 °F 35% 30.26 in 10.0 mi Calm Calm - N/A   Clear
1:35 PM 68.0 °F - 39.2 °F 35% 30.25 in 10.0 mi East 3.5 mph - N/A   Clear
1:55 PM 69.8 °F - 41.0 °F 35% 30.25 in 10.0 mi ESE 5.8 mph - N/A   Clear
2:15 PM 69.8 °F - 39.2 °F 33% 30.25 in 10.0 mi NE 4.6 mph - N/A   Clear
2:35 PM 69.8 °F - 39.2 °F 33% 30.24 in 10.0 mi North 4.6 mph - N/A   Clear
2:55 PM 71.6 °F - 41.0 °F 33% 30.23 in 10.0 mi NE 4.6 mph - N/A   Clear
3:15 PM 71.6 °F - 41.0 °F 33% 30.23 in 10.0 mi ENE 6.9 mph - N/A   Clear
3:35 PM 71.6 °F - 39.2 °F 31% 30.22 in 10.0 mi Calm Calm - N/A   Clear
3:55 PM 71.6 °F - 39.2 °F 31% 30.21 in 10.0 mi WNW 3.5 mph - N/A   Clear
4:15 PM 71.6 °F - 41.0 °F 33% 30.21 in 10.0 mi NNW 4.6 mph - N/A   Clear
4:55 PM 71.6 °F - 37.4 °F 29% 30.20 in 10.0 mi North 3.5 mph - N/A   Clear
5:15 PM 71.6 °F - 41.0 °F 33% 30.20 in 10.0 mi SSW 3.5 mph - N/A   Clear
5:35 PM 71.6 °F - 39.2 °F 31% 30.20 in 10.0 mi SSE 3.5 mph - N/A   Clear
5:55 PM 71.6 °F - 39.2 °F 31% 30.20 in 10.0 mi SE 4.6 mph - N/A   Clear
6:15 PM 71.6 °F - 37.4 °F 29% 30.20 in 10.0 mi Calm Calm - N/A   Clear
6:35 PM 69.8 °F - 37.4 °F 31% 30.20 in 10.0 mi Calm Calm - N/A   Clear
6:55 PM 69.8 °F - 39.2 °F 33% 30.20 in 10.0 mi Calm Calm - N/A   Clear
7:15 PM 68.0 °F - 41.0 °F 37% 30.20 in 10.0 mi Calm Calm - N/A   Clear
7:35 PM 68.0 °F - 42.8 °F 40% 30.20 in 10.0 mi Calm Calm - N/A   Clear
7:55 PM 60.8 °F - 51.8 °F 72% 30.20 in 10.0 mi Calm Calm - N/A   Clear
8:15 PM 59.0 °F - 51.8 °F 77% 30.20 in 10.0 mi Calm Calm - N/A   Clear
8:35 PM 55.4 °F - 50.0 °F 82% 30.21 in 10.0 mi Calm Calm - N/A   Clear
8:55 PM 53.6 °F - 50.0 °F 88% 30.22 in 10.0 mi Calm Calm - N/A   Clear
9:15 PM 53.6 °F - 50.0 °F 88% 30.22 in 10.0 mi Calm Calm - N/A   Clear
9:35 PM 53.6 °F - 50.0 °F 88% 30.23 in 10.0 mi Calm Calm - N/A   Clear
9:55 PM 51.8 °F - 50.0 °F 94% 30.23 in 10.0 mi Calm Calm - N/A   Clear
10:15 PM 51.8 °F - 48.2 °F 88% 30.24 in 10.0 mi Calm Calm - N/A   Clear
10:35 PM 50.0 °F - 46.4 °F 87% 30.24 in 10.0 mi Calm Calm - N/A   Clear
10:55 PM 50.0 °F - 48.2 °F 94% 30.23 in 10.0 mi Calm Calm - N/A   Clear
11:15 PM 51.8 °F - 48.2 °F 88% 30.23 in 10.0 mi Calm Calm - N/A   Clear
11:35 PM 50.0 °F - 46.4 °F 87% 30.23 in 10.0 mi Calm Calm - N/A   Clear
11:55 PM 48.2 °F - 46.4 °F 93% 30.22 in 10.0 mi Calm Calm - N/A   Clear